createdAt,value
2022-11-20T00:01:06.583Z,50.38
2022-11-20T00:03:33.818Z,42.88
2022-11-20T00:06:05.050Z,44.63
2022-11-20T00:08:32.617Z,41.92
2022-11-20T00:11:04.082Z,44.85
2022-11-20T00:13:31.303Z,45.75
2022-11-20T00:15:59.739Z,115.85
2022-11-20T00:18:27.874Z,66.72
2022-11-20T00:20:54.989Z,67.25
2022-11-20T00:23:22.219Z,87.95
2022-11-20T00:25:49.055Z,68.28
2022-11-20T00:28:16.295Z,71.72
2022-11-20T00:30:42.924Z,131.00
2022-11-20T00:33:10.348Z,83.38
2022-11-20T00:35:36.932Z,222.18
2022-11-20T00:38:04.431Z,46.65
2022-11-20T00:40:31.035Z,41.90
2022-11-20T00:42:58.280Z,48.10
2022-11-20T00:45:24.840Z,44.72
2022-11-20T00:47:52.193Z,42.67
2022-11-20T00:50:19.077Z,56.50
2022-11-20T00:52:46.319Z,43.92
2022-11-20T00:55:13.025Z,42.90
2022-11-20T00:57:40.100Z,42.40
2022-11-20T01:00:07.998Z,42.28
2022-11-20T01:02:37.265Z,45.10
2022-11-20T01:05:04.793Z,42.08
2022-11-20T01:07:32.751Z,54.13
2022-11-20T01:10:00.135Z,43.28
2022-11-20T01:12:26.749Z,46.17
2022-11-20T01:14:54.025Z,48.17
2022-11-20T01:17:20.621Z,47.25
2022-11-20T01:19:51.757Z,43.17
2022-11-20T01:22:18.373Z,46.03
2022-11-20T01:24:45.649Z,47.70
2022-11-20T01:27:12.209Z,48.03
2022-11-20T01:29:39.497Z,47.22
2022-11-20T01:32:06.194Z,48.83
2022-11-20T01:34:33.549Z,45.65
2022-11-20T01:37:00.145Z,52.63
2022-11-20T01:39:28.243Z,47.70
2022-11-20T01:42:15.776Z,50.83
2022-11-20T01:44:55.747Z,57.72
2022-11-20T01:47:35.273Z,50.08
2022-11-20T01:50:23.878Z,51.35
2022-11-20T01:53:03.062Z,54.97
2022-11-20T01:55:33.955Z,50.03
2022-11-20T01:58:02.527Z,52.92
2022-11-20T02:00:29.360Z,50.75
2022-11-20T02:03:04.779Z,52.53
2022-11-20T02:06:05.508Z,54.17
2022-11-20T02:08:34.039Z,53.50
2022-11-20T02:11:00.627Z,60.42
2022-11-20T02:13:46.019Z,60.72
2022-11-20T02:16:16.142Z,61.47
2022-11-20T02:18:45.084Z,62.35
2022-11-20T02:21:22.220Z,64.90
2022-11-20T02:23:59.412Z,61.90
2022-11-20T02:26:28.645Z,62.00
2022-11-20T02:28:56.354Z,60.97
2022-11-20T02:31:22.985Z,61.80
2022-11-20T02:33:56.441Z,61.92
2022-11-20T02:36:24.281Z,65.35
2022-11-20T02:38:51.841Z,66.30
2022-11-20T02:41:18.496Z,62.38
2022-11-20T02:43:45.917Z,64.32
2022-11-20T02:46:12.642Z,70.05
2022-11-20T02:48:39.911Z,77.15
2022-11-20T02:51:06.537Z,69.65
2022-11-20T02:53:33.826Z,68.47
2022-11-20T02:56:00.442Z,65.65
2022-11-20T02:58:27.736Z,59.55
2022-11-20T03:00:54.952Z,63.65
2022-11-20T03:03:22.330Z,57.97
2022-11-20T03:05:48.924Z,62.55
2022-11-20T03:08:16.334Z,60.78
2022-11-20T03:10:42.971Z,56.15
2022-11-20T03:13:10.234Z,58.70
2022-11-20T03:15:38.015Z,63.42
2022-11-20T03:18:05.560Z,63.22
2022-11-20T03:20:34.212Z,59.58
2022-11-20T03:23:01.551Z,62.72
2022-11-20T03:25:28.312Z,65.43
2022-11-20T03:27:55.877Z,68.60
2022-11-20T03:30:27.631Z,63.65
2022-11-20T03:32:57.920Z,61.55
2022-11-20T03:35:24.516Z,64.57
2022-11-20T03:37:51.782Z,58.95
2022-11-20T03:40:18.540Z,66.07
2022-11-20T03:42:48.658Z,64.95
2022-11-20T03:45:17.605Z,62.30
2022-11-20T03:47:45.561Z,69.10
2022-11-20T03:50:14.323Z,59.25
2022-11-20T03:52:42.330Z,54.92
2022-11-20T03:55:09.096Z,53.60
2022-11-20T03:57:36.507Z,53.05
2022-11-20T04:00:04.419Z,54.60
2022-11-20T04:02:31.794Z,56.78
2022-11-20T04:04:58.377Z,51.35
2022-11-20T04:07:25.319Z,50.85
2022-11-20T04:09:52.834Z,56.08
2022-11-20T04:12:19.442Z,52.92
2022-11-20T04:14:46.726Z,55.40
2022-11-20T04:17:13.707Z,48.35
2022-11-20T04:19:40.370Z,51.22
2022-11-20T04:22:07.896Z,47.28
2022-11-20T04:24:34.555Z,54.53
2022-11-20T04:27:01.827Z,48.38
2022-11-20T04:29:28.448Z,49.00
2022-11-20T04:31:55.368Z,47.15
2022-11-20T04:34:22.687Z,49.45
2022-11-20T04:36:49.501Z,46.25
2022-11-20T04:39:16.845Z,46.22
2022-11-20T04:41:43.587Z,45.88
2022-11-20T04:44:11.104Z,41.60
2022-11-20T04:46:40.240Z,48.60
2022-11-20T04:49:08.091Z,42.13
2022-11-20T04:51:35.056Z,42.90
2022-11-20T04:54:02.683Z,46.72
2022-11-20T04:56:29.309Z,43.70
2022-11-20T04:58:56.725Z,49.42
2022-11-20T05:01:25.224Z,43.25
2022-11-20T05:03:52.923Z,49.95
2022-11-20T05:06:22.891Z,46.67
2022-11-20T05:08:50.272Z,47.08
2022-11-20T05:11:19.995Z,47.55
2022-11-20T05:13:48.020Z,47.33
2022-11-20T05:16:18.287Z,45.97
2022-11-20T05:18:46.514Z,47.88
2022-11-20T05:21:13.908Z,40.17
2022-11-20T05:23:42.205Z,45.35
2022-11-20T05:26:14.438Z,44.88
2022-11-20T05:28:41.698Z,42.10
2022-11-20T05:31:13.446Z,45.67
2022-11-20T05:33:45.568Z,47.30
2022-11-20T05:36:14.311Z,48.40
2022-11-20T05:38:42.635Z,42.72
2022-11-20T05:41:13.109Z,50.05
2022-11-20T05:43:42.418Z,47.97
2022-11-20T05:46:12.106Z,48.97
2022-11-20T05:48:40.654Z,43.90
2022-11-20T05:51:09.554Z,46.60
2022-11-20T05:53:37.602Z,43.35
2022-11-20T05:56:10.970Z,46.78
2022-11-20T05:58:39.032Z,40.88
2022-11-20T06:01:10.911Z,43.72
2022-11-20T06:03:38.876Z,46.88
2022-11-20T06:06:06.843Z,50.13
2022-11-20T06:08:34.447Z,43.92
2022-11-20T06:11:08.819Z,48.30
2022-11-20T06:13:41.637Z,45.35
2022-11-20T06:16:09.556Z,46.20
2022-11-20T06:18:36.603Z,42.08
2022-11-20T06:21:06.648Z,43.97
2022-11-20T06:23:35.319Z,46.80
2022-11-20T06:26:04.578Z,43.70
2022-11-20T06:28:32.025Z,45.80
2022-11-20T06:30:59.229Z,47.20
2022-11-20T06:33:26.569Z,44.65
2022-11-20T06:35:58.498Z,48.15
2022-11-20T06:38:28.197Z,48.38
2022-11-20T06:40:55.422Z,42.55
2022-11-20T06:43:23.577Z,43.75
2022-11-20T06:45:54.973Z,43.78
2022-11-20T06:48:23.866Z,44.03
2022-11-20T06:50:50.606Z,45.72
2022-11-20T06:53:18.084Z,53.50
2022-11-20T06:55:48.630Z,51.85
2022-11-20T06:58:16.855Z,49.10
2022-11-20T07:00:43.778Z,53.22
2022-11-20T07:03:12.710Z,50.42
2022-11-20T07:05:39.609Z,52.90
2022-11-20T07:08:06.995Z,50.83
2022-11-20T07:10:34.030Z,50.25
2022-11-20T07:13:01.618Z,48.55
2022-11-20T07:15:28.352Z,48.20
2022-11-20T07:17:55.786Z,45.78
2022-11-20T07:20:22.435Z,49.10
2022-11-20T07:22:58.112Z,49.78
2022-11-20T07:25:29.051Z,52.80
2022-11-20T07:28:00.031Z,50.83
2022-11-20T07:30:28.331Z,48.58
2022-11-20T07:32:56.808Z,47.50
2022-11-20T07:35:25.090Z,47.75
2022-11-20T07:37:52.464Z,51.85
2022-11-20T07:40:19.527Z,46.70
2022-11-20T07:42:55.344Z,48.85
2022-11-20T07:45:24.084Z,47.17
2022-11-20T07:47:51.641Z,55.47
2022-11-20T07:50:19.201Z,49.63
2022-11-20T07:52:46.468Z,44.75
2022-11-20T07:55:13.464Z,50.17
2022-11-20T07:57:41.355Z,51.58
2022-11-20T08:00:10.690Z,49.53
2022-11-20T08:02:41.661Z,59.85
2022-11-20T08:05:09.741Z,49.25
2022-11-20T08:07:41.676Z,53.03
2022-11-20T08:10:10.833Z,51.70
2022-11-20T08:13:03.310Z,49.08
2022-11-20T08:15:30.353Z,49.63
2022-11-20T08:18:29.450Z,52.45
2022-11-20T08:20:49.957Z,52.83
2022-11-20T08:23:16.702Z,54.03
2022-11-20T08:25:44.022Z,51.60
2022-11-20T08:28:20.340Z,54.83
2022-11-20T08:30:48.399Z,50.85
2022-11-20T08:33:15.266Z,50.08
2022-11-20T08:35:43.738Z,47.03
2022-11-20T08:38:10.884Z,57.33
2022-11-20T08:40:37.675Z,50.38
2022-11-20T08:43:04.700Z,55.47
2022-11-20T08:45:34.751Z,50.88
2022-11-20T08:48:04.339Z,52.00
2022-11-20T08:50:32.817Z,52.92
2022-11-20T08:53:07.118Z,53.97
2022-11-20T08:55:36.295Z,53.28
2022-11-20T08:58:09.917Z,53.33
2022-11-20T09:00:36.675Z,54.85
2022-11-20T09:03:04.130Z,53.38
2022-11-20T09:05:30.781Z,53.55
2022-11-20T09:08:00.313Z,51.35
2022-11-20T09:10:28.162Z,53.97
2022-11-20T09:12:58.961Z,52.60
2022-11-20T09:15:26.970Z,49.92
2022-11-20T09:17:59.347Z,66.93
2022-11-20T09:20:29.601Z,66.40
2022-11-20T09:22:56.936Z,55.30
2022-11-20T09:25:23.812Z,53.63
2022-11-20T09:27:59.701Z,60.47
2022-11-20T09:30:27.673Z,67.88
2022-11-20T09:32:54.300Z,76.70
2022-11-20T09:35:21.124Z,73.53
2022-11-20T09:37:47.742Z,76.47
2022-11-20T09:40:22.554Z,81.70
2022-11-20T09:43:08.927Z,86.93
2022-11-20T09:45:41.426Z,104.38
2022-11-20T09:48:41.422Z,103.57
2022-11-20T09:51:47.416Z,112.28
2022-11-20T09:54:38.059Z,123.53
2022-11-20T09:57:14.663Z,120.30
2022-11-20T09:59:43.593Z,135.52
2022-11-20T10:02:39.514Z,132.80
2022-11-20T10:05:19.334Z,136.02
2022-11-20T10:08:01.731Z,133.82
2022-11-20T10:10:43.820Z,123.45
2022-11-20T10:13:47.437Z,124.18
2022-11-20T10:16:40.604Z,88.03
2022-11-20T10:19:31.224Z,113.95
2022-11-20T10:22:11.762Z,119.35
2022-11-20T10:25:01.788Z,112.90
2022-11-20T10:28:11.553Z,108.72
2022-11-20T10:30:43.285Z,117.80
2022-11-20T10:33:20.750Z,118.00
2022-11-20T10:35:56.670Z,121.13
2022-11-20T10:38:32.719Z,109.70
2022-11-20T10:41:22.374Z,113.18
2022-11-20T10:43:52.908Z,120.00
2022-11-20T10:46:23.598Z,109.22
2022-11-20T10:48:51.234Z,99.72
2022-11-20T10:51:43.094Z,107.90
2022-11-20T10:54:23.134Z,114.05
2022-11-20T10:56:57.758Z,114.20
2022-11-20T10:59:58.509Z,106.38
2022-11-20T11:02:40.773Z,100.57
2022-11-20T11:05:33.602Z,104.50
2022-11-20T11:08:01.119Z,90.82
2022-11-20T11:10:51.490Z,93.85
2022-11-20T11:13:26.066Z,91.75
2022-11-20T11:15:53.961Z,83.50
2022-11-20T11:18:31.047Z,91.75
2022-11-20T11:21:00.256Z,84.07
2022-11-20T11:23:39.165Z,91.43
2022-11-20T11:26:19.135Z,92.40
2022-11-20T11:29:03.522Z,92.05
2022-11-20T11:31:35.389Z,94.18
2022-11-20T11:34:28.444Z,82.47
2022-11-20T11:37:00.400Z,81.63
2022-11-20T11:39:29.484Z,81.53
2022-11-20T11:41:58.118Z,75.60
2022-11-20T11:44:50.693Z,84.88
2022-11-20T11:47:32.083Z,69.70
2022-11-20T11:50:10.818Z,78.50
2022-11-20T11:52:48.766Z,70.68
2022-11-20T11:55:28.666Z,72.00
2022-11-20T11:58:30.758Z,73.32
2022-11-20T12:01:35.045Z,73.10
2022-11-20T12:04:14.664Z,74.55
2022-11-20T12:06:45.378Z,76.00
2022-11-20T12:09:12.913Z,76.10
2022-11-20T12:12:25.788Z,70.88
2022-11-20T12:14:55.518Z,73.78
2022-11-20T12:17:23.079Z,70.47
2022-11-20T12:19:50.118Z,70.35
2022-11-20T12:22:30.855Z,66.53
2022-11-20T12:25:08.424Z,64.35
2022-11-20T12:27:46.385Z,60.72
2022-11-20T12:30:16.732Z,68.10
2022-11-20T12:33:02.046Z,59.45
2022-11-20T12:35:45.524Z,70.80
2022-11-20T12:38:44.440Z,68.35
2022-11-20T12:42:11.232Z,66.85
2022-11-20T12:45:11.694Z,75.32
2022-11-20T12:48:32.044Z,71.88
2022-11-20T12:51:23.208Z,79.00
2022-11-20T12:54:37.793Z,81.95
2022-11-20T12:57:15.563Z,72.95
2022-11-20T13:00:01.004Z,73.38
2022-11-20T13:02:40.065Z,64.10
2022-11-20T13:05:25.191Z,73.32
2022-11-20T13:07:54.605Z,67.90
2022-11-20T13:10:47.070Z,60.53
2022-11-20T13:13:40.839Z,69.20
2022-11-20T13:18:47.498Z,64.97
2022-11-20T13:21:18.083Z,66.40
2022-11-20T13:23:45.398Z,66.38
2022-11-20T13:26:24.178Z,75.63
2022-11-20T13:29:12.268Z,65.28
2022-11-20T13:31:44.070Z,68.88
2022-11-20T13:34:24.025Z,68.60
2022-11-20T13:36:53.546Z,72.82
2022-11-20T13:39:28.183Z,65.50
2022-11-20T13:42:02.324Z,69.97
2022-11-20T13:44:54.451Z,70.97
2022-11-20T13:47:26.890Z,67.85
2022-11-20T13:49:55.696Z,66.20
2022-11-20T13:52:37.783Z,66.25
2022-11-20T13:55:19.519Z,73.35
2022-11-20T13:58:10.991Z,70.47
2022-11-20T14:00:56.323Z,69.13
2022-11-20T14:03:44.206Z,66.45
2022-11-20T14:06:32.251Z,73.57
2022-11-20T14:09:00.771Z,70.97
2022-11-20T14:11:30.424Z,91.53
2022-11-20T14:14:02.987Z,69.93
2022-11-20T14:16:32.507Z,71.95
2022-11-20T14:19:21.693Z,71.97
2022-11-20T14:22:07.109Z,78.60
2022-11-20T14:24:34.472Z,73.95
2022-11-20T14:27:01.546Z,73.97
2022-11-20T14:29:35.824Z,66.65
2022-11-20T14:32:04.173Z,81.47
2022-11-20T14:34:36.777Z,130.68
2022-11-20T14:37:08.821Z,163.80
2022-11-20T14:39:43.163Z,81.28
2022-11-20T14:42:25.078Z,80.60
2022-11-20T14:44:55.090Z,75.05
2022-11-20T14:47:31.943Z,68.53
2022-11-20T14:50:03.436Z,77.28
2022-11-20T14:52:32.959Z,71.63
2022-11-20T14:55:00.569Z,71.55
2022-11-20T14:57:29.141Z,71.70
2022-11-20T15:00:25.710Z,69.88
2022-11-20T15:02:53.654Z,79.93
2022-11-20T15:05:23.196Z,75.15
2022-11-20T15:08:09.088Z,83.45
2022-11-20T15:10:35.959Z,72.70
2022-11-20T15:13:12.395Z,81.18
2022-11-20T15:15:49.768Z,81.40
2022-11-20T15:18:20.127Z,80.18
2022-11-20T15:20:47.119Z,78.63
2022-11-20T15:23:16.606Z,79.10
2022-11-20T15:25:43.459Z,84.55
2022-11-20T15:28:21.780Z,83.75
2022-11-20T15:30:49.881Z,79.20
2022-11-20T15:33:18.001Z,84.75
2022-11-20T15:35:45.097Z,83.95
2022-11-20T15:38:12.457Z,80.30
2022-11-20T15:40:39.170Z,80.88
2022-11-20T15:43:13.332Z,85.38
2022-11-20T15:45:44.841Z,78.88
2022-11-20T15:48:20.587Z,81.60
2022-11-20T15:50:49.930Z,78.55
2022-11-20T15:53:17.046Z,81.88
2022-11-20T15:55:43.621Z,81.43
2022-11-20T15:58:10.934Z,79.32
2022-11-20T16:00:37.637Z,81.03
2022-11-20T16:03:04.641Z,85.25
2022-11-20T16:05:31.389Z,80.55
2022-11-20T16:07:58.810Z,76.93
2022-11-20T16:10:25.553Z,83.97
2022-11-20T16:13:10.810Z,81.13
2022-11-20T16:15:46.353Z,80.20
2022-11-20T16:18:19.527Z,85.90
2022-11-20T16:20:51.773Z,82.20
2022-11-20T16:23:18.837Z,92.65
2022-11-20T16:25:45.639Z,89.43
2022-11-20T16:28:18.426Z,93.65
2022-11-20T16:30:45.934Z,110.05
2022-11-20T16:33:14.946Z,90.10
2022-11-20T16:35:41.883Z,91.00
2022-11-20T16:38:08.627Z,84.28
2022-11-20T16:40:35.539Z,99.32
2022-11-20T16:43:14.424Z,84.85
2022-11-20T16:45:43.273Z,84.40
2022-11-20T16:48:15.114Z,100.50
2022-11-20T16:50:51.047Z,82.75
2022-11-20T16:53:19.882Z,95.32
2022-11-20T16:55:46.706Z,83.63
2022-11-20T16:58:14.776Z,92.18
2022-11-20T17:00:45.613Z,85.82
2022-11-20T17:03:17.860Z,89.85
2022-11-20T17:05:44.505Z,93.85
2022-11-20T17:08:11.613Z,85.00
2022-11-20T17:10:38.275Z,89.22
2022-11-20T17:13:05.053Z,82.80
2022-11-20T17:15:31.738Z,83.32
2022-11-20T17:17:58.680Z,86.88
2022-11-20T17:20:25.269Z,87.35
2022-11-20T17:22:51.941Z,84.25
2022-11-20T17:25:18.553Z,80.68
2022-11-20T17:27:45.462Z,81.20
2022-11-20T17:30:12.937Z,77.38
2022-11-20T17:32:45.109Z,82.85
2022-11-20T17:35:12.682Z,82.13
2022-11-20T17:37:39.324Z,78.07
2022-11-20T17:40:07.049Z,83.70
2022-11-20T17:42:36.630Z,77.68
2022-11-20T17:45:04.625Z,85.38
2022-11-20T17:47:31.645Z,78.65
2022-11-20T17:49:58.354Z,73.53
2022-11-20T17:52:25.296Z,66.35
2022-11-20T17:54:56.099Z,74.10
2022-11-20T17:57:42.766Z,69.75
2022-11-20T18:00:12.887Z,64.38
2022-11-20T18:02:40.136Z,58.25
2022-11-20T18:05:07.360Z,63.30
2022-11-20T18:07:38.644Z,53.22
2022-11-20T18:10:09.576Z,53.28
2022-11-20T18:12:36.621Z,55.72
2022-11-20T18:15:03.741Z,52.83
2022-11-20T18:17:31.000Z,57.47
2022-11-20T18:20:27.176Z,46.40
2022-11-20T18:22:45.595Z,38.95
2022-11-20T18:25:12.248Z,39.15
2022-11-20T18:27:39.324Z,42.80
2022-11-20T18:30:07.178Z,40.80
2022-11-20T18:32:35.061Z,37.53
2022-11-20T18:35:02.364Z,37.25
2022-11-20T18:37:28.924Z,40.53
2022-11-20T18:39:57.175Z,38.63
2022-11-20T18:42:42.629Z,66.05
2022-11-20T18:45:09.536Z,48.17
2022-11-20T18:47:38.977Z,50.42
2022-11-20T18:50:08.666Z,41.92
2022-11-20T18:52:40.639Z,45.45
2022-11-20T18:55:08.647Z,49.67
2022-11-20T18:57:35.432Z,49.08
2022-11-20T19:00:08.897Z,56.45
2022-11-20T19:02:41.755Z,43.47
2022-11-20T19:05:12.161Z,38.50
2022-11-20T19:07:39.138Z,52.40
2022-11-20T19:10:07.159Z,43.28
2022-11-20T19:12:33.750Z,42.75
2022-11-20T19:15:01.029Z,53.70
2022-11-20T19:17:27.651Z,56.30
2022-11-20T19:19:55.437Z,53.17
2022-11-20T19:22:22.429Z,63.13
2022-11-20T19:24:50.004Z,49.00
2022-11-20T19:27:16.672Z,50.33
2022-11-20T19:29:43.938Z,61.03
2022-11-20T19:32:10.660Z,67.03
2022-11-20T19:34:37.994Z,53.45
2022-11-20T19:37:05.004Z,55.78
2022-11-20T19:39:32.283Z,48.53
2022-11-20T19:41:58.947Z,42.97
2022-11-20T19:44:26.043Z,54.05
2022-11-20T19:46:52.831Z,55.95
2022-11-20T19:49:20.222Z,53.72
2022-11-20T19:51:48.937Z,36.03
2022-11-20T19:54:17.108Z,50.53
2022-11-20T19:56:45.175Z,51.67
2022-11-20T19:59:12.904Z,54.22
2022-11-20T20:01:39.836Z,51.47
2022-11-20T20:04:07.212Z,43.92
2022-11-20T20:06:38.064Z,45.15
2022-11-20T20:09:07.034Z,50.83
2022-11-20T20:11:34.793Z,43.83
2022-11-20T20:14:07.214Z,56.35
2022-11-20T20:16:35.135Z,35.90
2022-11-20T20:19:03.639Z,50.88
2022-11-20T20:21:31.741Z,52.60
2022-11-20T20:23:59.478Z,56.78
2022-11-20T20:26:28.237Z,49.85
2022-11-20T20:28:56.206Z,41.13
2022-11-20T20:31:25.491Z,56.05
2022-11-20T20:33:52.685Z,52.97
2022-11-20T20:36:20.425Z,47.42
2022-11-20T20:38:47.888Z,44.25
2022-11-20T20:41:18.637Z,63.95
2022-11-20T20:44:04.379Z,51.75
2022-11-20T20:46:31.169Z,60.28
2022-11-20T20:48:58.199Z,56.80
2022-11-20T20:51:25.140Z,47.30
2022-11-20T20:53:52.541Z,55.65
2022-11-20T20:56:19.501Z,56.65
2022-11-20T20:58:46.854Z,53.22
2022-11-20T21:01:15.374Z,60.85
2022-11-20T21:03:42.712Z,46.67
2022-11-20T21:06:11.079Z,63.78
2022-11-20T21:08:40.895Z,50.55
2022-11-20T21:11:11.111Z,55.83
2022-11-20T21:13:40.626Z,55.75
2022-11-20T21:16:07.618Z,53.78
2022-11-20T21:18:35.510Z,75.57
2022-11-20T21:21:25.413Z,62.58
2022-11-20T21:23:53.788Z,59.03
2022-11-20T21:26:21.385Z,59.33
2022-11-20T21:28:50.177Z,67.30
2022-11-20T21:31:21.910Z,56.42
2022-11-20T21:33:51.315Z,54.63
2022-11-20T21:36:20.448Z,56.88
2022-11-20T21:38:48.710Z,52.58
2022-11-20T21:41:15.986Z,50.47
2022-11-20T21:43:44.407Z,82.70
2022-11-20T21:46:13.562Z,57.85
2022-11-20T21:48:41.888Z,77.47
2022-11-20T21:51:36.139Z,62.78
2022-11-20T21:54:03.303Z,52.20
2022-11-20T21:56:32.302Z,43.33
2022-11-20T21:59:05.219Z,46.60
2022-11-20T22:04:25.418Z,64.97
2022-11-20T22:09:45.819Z,43.20
2022-11-20T22:12:12.495Z,41.20
2022-11-20T22:14:39.088Z,38.22
2022-11-20T22:17:06.164Z,50.35
2022-11-20T22:19:32.865Z,45.75
2022-11-20T22:22:00.214Z,49.67
2022-11-20T22:24:27.190Z,45.65
2022-11-20T22:26:54.424Z,41.05
2022-11-20T22:29:21.375Z,43.35
2022-11-20T22:31:48.713Z,39.03
2022-11-20T22:34:15.416Z,35.28
2022-11-20T22:36:42.610Z,37.05
2022-11-20T22:39:10.355Z,34.33
2022-11-20T22:41:37.045Z,37.22
2022-11-20T22:44:07.085Z,52.00
2022-11-20T22:46:36.018Z,42.97
2022-11-20T22:49:06.300Z,44.55
2022-11-20T22:51:35.124Z,36.05
2022-11-20T22:54:03.980Z,55.42
2022-11-20T22:56:31.694Z,37.75
2022-11-20T22:58:59.166Z,43.08
2022-11-20T23:01:31.320Z,42.55
2022-11-20T23:04:01.507Z,46.88
2022-11-20T23:06:29.892Z,49.28
2022-11-20T23:08:56.844Z,44.65
2022-11-20T23:11:26.690Z,43.65
2022-11-20T23:13:56.400Z,49.72
2022-11-20T23:16:24.944Z,56.33
2022-11-20T23:18:57.032Z,51.50
2022-11-20T23:21:24.212Z,55.23
2022-11-20T23:23:53.928Z,52.72
2022-11-20T23:26:23.772Z,47.13
2022-11-20T23:28:53.059Z,42.63
2022-11-20T23:31:19.739Z,56.38
2022-11-20T23:33:47.140Z,49.80
2022-11-20T23:36:14.423Z,48.17
2022-11-20T23:38:41.709Z,46.30
2022-11-20T23:41:08.409Z,52.35
2022-11-20T23:43:35.886Z,49.00
2022-11-20T23:46:04.089Z,62.10
2022-11-20T23:48:36.956Z,113.35
2022-11-20T23:51:05.517Z,85.03
2022-11-20T23:53:33.585Z,64.80
2022-11-20T23:56:02.588Z,52.03
2022-11-20T23:58:35.292Z,50.60
